sensor_id;sensor_type;location;lat;lon;timestamp;pressure;altitude;pressure_sealevel;temperature;humidity
82872;BME280;72646;43.596;1.428;2023-10-09T00:01:02;100347.91;;;24.65;34.46
82872;BME280;72646;43.596;1.428;2023-10-09T00:03:29;100365.47;;;24.66;34.76
82872;BME280;72646;43.596;1.428;2023-10-09T00:05:55;100348.69;;;24.61;34.17
82872;BME280;72646;43.596;1.428;2023-10-09T00:08:21;100360.75;;;24.66;34.32
82872;BME280;72646;43.596;1.428;2023-10-09T00:10:51;100359.06;;;24.65;34.03
82872;BME280;72646;43.596;1.428;2023-10-09T00:13:24;100343.66;;;24.58;33.63
82872;BME280;72646;43.596;1.428;2023-10-09T00:16:06;100348.97;;;24.59;33.25
82872;BME280;72646;43.596;1.428;2023-10-09T00:18:40;100352.59;;;24.60;33.43
82872;BME280;72646;43.596;1.428;2023-10-09T00:21:15;100352.59;;;24.60;33.33
82872;BME280;72646;43.596;1.428;2023-10-09T00:23:41;100353.72;;;24.59;34.04
82872;BME280;72646;43.596;1.428;2023-10-09T00:26:08;100352.03;;;24.63;33.74
82872;BME280;72646;43.596;1.428;2023-10-09T00:28:38;100347.88;;;24.55;33.91
82872;BME280;72646;43.596;1.428;2023-10-09T00:31:08;100340.59;;;24.54;34.00
82872;BME280;72646;43.596;1.428;2023-10-09T00:33:43;100351.50;;;24.61;34.08
82872;BME280;72646;43.596;1.428;2023-10-09T00:36:09;100345.88;;;24.56;34.38
82872;BME280;72646;43.596;1.428;2023-10-09T00:38:38;100351.19;;;24.57;34.52
82872;BME280;72646;43.596;1.428;2023-10-09T00:41:15;100343.94;;;24.51;34.75
82872;BME280;72646;43.596;1.428;2023-10-09T00:43:46;100352.03;;;24.58;35.07
82872;BME280;72646;43.596;1.428;2023-10-09T00:46:15;100350.91;;;24.59;35.02
82872;BME280;72646;43.596;1.428;2023-10-09T00:48:43;100342.56;;;24.54;35.36
82872;BME280;72646;43.596;1.428;2023-10-09T00:51:13;100355.38;;;24.60;35.25
82872;BME280;72646;43.596;1.428;2023-10-09T00:54:04;100345.63;;;24.62;35.44
82872;BME280;72646;43.596;1.428;2023-10-09T00:56:39;100343.94;;;24.61;35.51
82872;BME280;72646;43.596;1.428;2023-10-09T00:59:07;100350.41;;;24.67;35.44
82872;BME280;72646;43.596;1.428;2023-10-09T01:01:41;100342.00;;;24.62;35.64
82872;BME280;72646;43.596;1.428;2023-10-09T01:04:11;100344.00;;;24.66;35.55
82872;BME280;72646;43.596;1.428;2023-10-09T01:06:44;100339.81;;;24.64;35.61
82872;BME280;72646;43.596;1.428;2023-10-09T01:09:14;100335.28;;;24.63;35.09
82872;BME280;72646;43.596;1.428;2023-10-09T01:11:40;100342.84;;;24.62;34.93
82872;BME280;72646;43.596;1.428;2023-10-09T01:14:17;100345.38;;;24.64;34.81
82872;BME280;72646;43.596;1.428;2023-10-09T01:16:46;100351.78;;;24.64;34.68
82872;BME280;72646;43.596;1.428;2023-10-09T01:19:13;100338.63;;;24.60;34.91
82872;BME280;72646;43.596;1.428;2023-10-09T01:21:44;100335.03;;;24.59;34.90
82872;BME280;72646;43.596;1.428;2023-10-09T01:24:10;100347.06;;;24.65;34.64
82872;BME280;72646;43.596;1.428;2023-10-09T01:26:39;100338.34;;;24.61;34.53
82872;BME280;72646;43.596;1.428;2023-10-09T01:29:08;100337.53;;;24.61;34.45
82872;BME280;72646;43.596;1.428;2023-10-09T01:31:47;100336.41;;;24.62;34.54
82872;BME280;72646;43.596;1.428;2023-10-09T01:34:34;100341.16;;;24.61;34.28
82872;BME280;72646;43.596;1.428;2023-10-09T01:37:20;100337.00;;;24.64;34.38
82872;BME280;72646;43.596;1.428;2023-10-09T01:39:55;100342.31;;;24.65;34.75
82872;BME280;72646;43.596;1.428;2023-10-09T01:42:24;100331.38;;;24.59;35.16
82872;BME280;72646;43.596;1.428;2023-10-09T01:44:50;100335.28;;;24.63;35.09
82872;BME280;72646;43.596;1.428;2023-10-09T01:47:18;100330.56;;;24.58;35.61
82872;BME280;72646;43.596;1.428;2023-10-09T01:49:44;100336.16;;;24.63;35.61
82872;BME280;72646;43.596;1.428;2023-10-09T01:52:14;100325.78;;;24.59;35.36
82872;BME280;72646;43.596;1.428;2023-10-09T01:54:44;100333.09;;;24.65;34.97
82872;BME280;72646;43.596;1.428;2023-10-09T01:57:15;100311.56;;;24.50;35.02
82872;BME280;72646;43.596;1.428;2023-10-09T01:59:44;100330.25;;;24.60;34.68
82872;BME280;72646;43.596;1.428;2023-10-09T02:02:13;100332.50;;;24.63;34.76
82872;BME280;72646;43.596;1.428;2023-10-09T02:04:55;100342.31;;;24.65;35.13
82872;BME280;72646;43.596;1.428;2023-10-09T02:07:35;100331.94;;;24.61;35.17
82872;BME280;72646;43.596;1.428;2023-10-09T02:10:13;100331.38;;;24.59;35.10
82872;BME280;72646;43.596;1.428;2023-10-09T02:15:30;100328.88;;;24.57;35.73
82872;BME280;72646;43.596;1.428;2023-10-09T02:18:20;100339.50;;;24.55;35.97
82872;BME280;72646;43.596;1.428;2023-10-09T02:20:49;100343.66;;;24.58;35.88
82872;BME280;72646;43.596;1.428;2023-10-09T02:23:27;100345.63;;;24.57;36.04
82872;BME280;72646;43.596;1.428;2023-10-09T02:26:08;100335.56;;;24.51;35.96
82872;BME280;72646;43.596;1.428;2023-10-09T02:29:03;100329.72;;;24.48;36.04
82872;BME280;72646;43.596;1.428;2023-10-09T02:31:40;100335.00;;;24.49;36.28
82872;BME280;72646;43.596;1.428;2023-10-09T02:34:06;100336.69;;;24.50;36.27
82872;BME280;72646;43.596;1.428;2023-10-09T02:36:36;100347.28;;;24.53;36.56
82872;BME280;72646;43.596;1.428;2023-10-09T02:39:09;100349.81;;;24.55;36.52
82872;BME280;72646;43.596;1.428;2023-10-09T02:41:49;100339.75;;;24.49;36.52
82872;BME280;72646;43.596;1.428;2023-10-09T02:44:15;100342.53;;;24.49;36.56
82872;BME280;72646;43.596;1.428;2023-10-09T02:46:41;100352.31;;;24.51;36.59
82872;BME280;72646;43.596;1.428;2023-10-09T02:49:10;100349.50;;;24.51;36.78
82872;BME280;72646;43.596;1.428;2023-10-09T02:51:41;100352.31;;;24.51;36.74
82872;BME280;72646;43.596;1.428;2023-10-09T02:54:09;100357.88;;;24.51;36.79
82872;BME280;72646;43.596;1.428;2023-10-09T02:56:51;100346.72;;;24.46;36.79
82872;BME280;72646;43.596;1.428;2023-10-09T02:59:22;100353.97;;;24.47;36.88
82872;BME280;72646;43.596;1.428;2023-10-09T03:01:48;100348.13;;;24.49;37.00
82872;BME280;72646;43.596;1.428;2023-10-09T03:04:14;100362.94;;;24.49;36.60
82872;BME280;72646;43.596;1.428;2023-10-09T03:06:41;100357.88;;;24.51;36.96
82872;BME280;72646;43.596;1.428;2023-10-09T03:09:16;100358.47;;;24.48;36.60
82872;BME280;72646;43.596;1.428;2023-10-09T03:11:45;100363.47;;;24.51;36.57
82872;BME280;72646;43.596;1.428;2023-10-09T03:14:12;100356.22;;;24.50;37.03
82872;BME280;72646;43.596;1.428;2023-10-09T03:16:37;100355.94;;;24.52;36.54
82872;BME280;72646;43.596;1.428;2023-10-09T03:19:03;100348.13;;;24.44;36.43
82872;BME280;72646;43.596;1.428;2023-10-09T03:21:28;100361.25;;;24.53;36.37
82872;BME280;72646;43.596;1.428;2023-10-09T03:23:54;100351.47;;;24.46;36.35
82872;BME280;72646;43.596;1.428;2023-10-09T03:26:21;100358.47;;;24.48;36.19
82872;BME280;72646;43.596;1.428;2023-10-09T03:28:48;100370.44;;;24.49;36.50
82872;BME280;72646;43.596;1.428;2023-10-09T03:31:13;100377.44;;;24.51;36.42
82872;BME280;72646;43.596;1.428;2023-10-09T03:33:39;100365.44;;;24.51;36.60
82872;BME280;72646;43.596;1.428;2023-10-09T03:36:05;100364.88;;;24.49;36.70
82872;BME280;72646;43.596;1.428;2023-10-09T03:38:38;100366.53;;;24.50;36.89
82872;BME280;72646;43.596;1.428;2023-10-09T03:41:05;100368.22;;;24.51;36.96
82872;BME280;72646;43.596;1.428;2023-10-09T03:43:37;100353.69;;;24.39;37.32
82872;BME280;72646;43.596;1.428;2023-10-09T03:46:11;100369.06;;;24.51;37.24
82872;BME280;72646;43.596;1.428;2023-10-09T03:48:50;100372.97;;;24.50;37.14
82872;BME280;72646;43.596;1.428;2023-10-09T03:51:17;100362.34;;;24.47;37.17
82872;BME280;72646;43.596;1.428;2023-10-09T03:53:49;100366.53;;;24.50;37.04
82872;BME280;72646;43.596;1.428;2023-10-09T03:56:16;100371.03;;;24.51;37.17
82872;BME280;72646;43.596;1.428;2023-10-09T03:58:46;100364.31;;;24.47;36.99
82872;BME280;72646;43.596;1.428;2023-10-09T04:01:13;100373.81;;;24.51;37.15
82872;BME280;72646;43.596;1.428;2023-10-09T04:03:51;100370.75;;;24.52;37.24
82872;BME280;72646;43.596;1.428;2023-10-09T04:06:23;100374.34;;;24.53;37.30
82872;BME280;72646;43.596;1.428;2023-10-09T04:08:48;100360.94;;;24.50;37.26
82872;BME280;72646;43.596;1.428;2023-10-09T04:11:16;100370.75;;;24.52;37.24
82872;BME280;72646;43.596;1.428;2023-10-09T04:13:43;100382.19;;;24.51;37.33
82872;BME280;72646;43.596;1.428;2023-10-09T04:16:12;100358.16;;;24.40;37.17
82872;BME280;72646;43.596;1.428;2023-10-09T04:19:03;100359.84;;;24.41;37.41
82872;BME280;72646;43.596;1.428;2023-10-09T04:21:36;100366.00;;;24.48;37.52
82872;BME280;72646;43.596;1.428;2023-10-09T04:24:03;100367.94;;;24.47;37.43
82872;BME280;72646;43.596;1.428;2023-10-09T04:26:48;100378.00;;;24.53;37.66
82872;BME280;72646;43.596;1.428;2023-10-09T04:29:22;100371.56;;;24.48;37.33
82872;BME280;72646;43.596;1.428;2023-10-09T04:31:56;100369.91;;;24.52;37.37
82872;BME280;72646;43.596;1.428;2023-10-09T04:34:25;100366.53;;;24.50;37.46
82872;BME280;72646;43.596;1.428;2023-10-09T04:36:54;100365.72;;;24.49;37.36
82872;BME280;72646;43.596;1.428;2023-10-09T04:39:29;100356.78;;;24.47;37.46
82872;BME280;72646;43.596;1.428;2023-10-09T04:41:55;100365.44;;;24.51;37.21
82872;BME280;72646;43.596;1.428;2023-10-09T04:44:43;100358.75;;;24.47;37.17
82872;BME280;72646;43.596;1.428;2023-10-09T04:47:27;100364.06;;;24.48;37.17
82872;BME280;72646;43.596;1.428;2023-10-09T04:50:07;100376.34;;;24.52;37.08
82872;BME280;72646;43.596;1.428;2023-10-09T04:52:59;100368.50;;;24.54;36.85
82872;BME280;72646;43.596;1.428;2023-10-09T04:55:44;100369.06;;;24.51;36.82
82872;BME280;72646;43.596;1.428;2023-10-09T04:58:25;100353.72;;;24.44;36.64
82872;BME280;72646;43.596;1.428;2023-10-09T05:00:52;100375.47;;;24.52;36.66
82872;BME280;72646;43.596;1.428;2023-10-09T05:03:23;100380.81;;;24.48;36.71
82872;BME280;72646;43.596;1.428;2023-10-09T05:06:11;100352.03;;;24.38;36.56
82872;BME280;72646;43.596;1.428;2023-10-09T05:08:46;100374.91;;;24.45;36.60
82872;BME280;72646;43.596;1.428;2023-10-09T05:11:13;100375.19;;;24.43;36.71
82872;BME280;72646;43.596;1.428;2023-10-09T05:14:02;100376.31;;;24.47;36.61
82872;BME280;72646;43.596;1.428;2023-10-09T05:16:38;100372.69;;;24.42;36.58
82872;BME280;72646;43.596;1.428;2023-10-09T05:19:13;100390.25;;;24.47;36.58
82872;BME280;72646;43.596;1.428;2023-10-09T05:22:02;100388.88;;;24.50;36.36
82872;BME280;72646;43.596;1.428;2023-10-09T05:24:33;100380.78;;;24.43;36.50
82872;BME280;72646;43.596;1.428;2023-10-09T05:27:09;100395.31;;;24.50;36.29
82872;BME280;72646;43.596;1.428;2023-10-09T05:29:42;100400.59;;;24.52;36.27
82872;BME280;72646;43.596;1.428;2023-10-09T05:32:24;100392.25;;;24.47;36.25
82872;BME280;72646;43.596;1.428;2023-10-09T05:35:00;100391.91;;;24.28;35.79
82872;BME280;72646;43.596;1.428;2023-10-09T05:37:29;100403.84;;;24.08;35.89
82872;BME280;72646;43.596;1.428;2023-10-09T05:40:05;100401.25;;;23.92;36.28
82872;BME280;72646;43.596;1.428;2023-10-09T05:42:44;100399.75;;;23.74;36.41
82872;BME280;72646;43.596;1.428;2023-10-09T05:45:17;100400.78;;;23.58;36.54
82872;BME280;72646;43.596;1.428;2023-10-09T05:47:43;100411.13;;;23.58;37.14
82872;BME280;72646;43.596;1.428;2023-10-09T05:50:29;100409.94;;;23.54;37.42
82872;BME280;72646;43.596;1.428;2023-10-09T05:53:03;100404.84;;;23.36;38.26
82872;BME280;72646;43.596;1.428;2023-10-09T05:55:30;100386.31;;;22.88;39.05
82872;BME280;72646;43.596;1.428;2023-10-09T05:58:15;100407.25;;;22.91;39.27
82872;BME280;72646;43.596;1.428;2023-10-09T06:00:58;100405.25;;;22.86;39.65
82872;BME280;72646;43.596;1.428;2023-10-09T06:03:50;100418.91;;;22.88;39.67
82872;BME280;72646;43.596;1.428;2023-10-09T06:06:37;100402.31;;;22.71;39.68
82872;BME280;72646;43.596;1.428;2023-10-09T06:09:21;100415.22;;;22.51;40.18
82872;BME280;72646;43.596;1.428;2023-10-09T06:11:49;100418.81;;;22.51;40.71
82872;BME280;72646;43.596;1.428;2023-10-09T06:14:18;100422.56;;;22.62;41.23
82872;BME280;72646;43.596;1.428;2023-10-09T06:16:56;100421.81;;;22.71;40.33
82872;BME280;72646;43.596;1.428;2023-10-09T06:19:26;100427.22;;;22.83;40.30
82872;BME280;72646;43.596;1.428;2023-10-09T06:21:56;100433.75;;;22.98;39.94
82872;BME280;72646;43.596;1.428;2023-10-09T06:24:39;100430.88;;;23.20;39.61
82872;BME280;72646;43.596;1.428;2023-10-09T06:27:11;100425.41;;;23.30;39.21
82872;BME280;72646;43.596;1.428;2023-10-09T06:29:42;100421.28;;;23.37;38.77
82872;BME280;72646;43.596;1.428;2023-10-09T06:32:14;100428.38;;;23.55;38.30
82872;BME280;72646;43.596;1.428;2023-10-09T06:34:57;100435.72;;;23.71;37.97
82872;BME280;72646;43.596;1.428;2023-10-09T06:37:47;100420.66;;;23.72;37.95
82872;BME280;72646;43.596;1.428;2023-10-09T06:43:05;100437.50;;;23.92;37.79
82872;BME280;72646;43.596;1.428;2023-10-09T06:45:55;100438.13;;;23.99;37.47
82872;BME280;72646;43.596;1.428;2023-10-09T06:48:24;100432.53;;;23.99;37.17
82872;BME280;72646;43.596;1.428;2023-10-09T06:51:09;100422.78;;;24.01;37.39
82872;BME280;72646;43.596;1.428;2023-10-09T06:53:53;100434.25;;;24.10;37.30
82872;BME280;72646;43.596;1.428;2023-10-09T06:58:50;100440.41;;;24.17;37.28
82872;BME280;72646;43.596;1.428;2023-10-09T07:01:20;100442.13;;;24.18;37.17
82872;BME280;72646;43.596;1.428;2023-10-09T07:03:57;100447.69;;;24.23;37.38
82872;BME280;72646;43.596;1.428;2023-10-09T07:06:35;100441.53;;;24.16;37.12
82872;BME280;72646;43.596;1.428;2023-10-09T07:09:01;100450.78;;;24.27;37.27
82872;BME280;72646;43.596;1.428;2023-10-09T07:11:34;100446.56;;;24.24;37.17
82872;BME280;72646;43.596;1.428;2023-10-09T07:14:20;100456.91;;;24.28;37.38
82872;BME280;72646;43.596;1.428;2023-10-09T07:17:18;100454.97;;;24.29;37.25
82872;BME280;72646;43.596;1.428;2023-10-09T07:19:58;100460.03;;;24.32;37.19
82872;BME280;72646;43.596;1.428;2023-10-09T07:22:50;100460.84;;;24.33;37.09
82872;BME280;72646;43.596;1.428;2023-10-09T07:25:19;100461.69;;;24.33;37.12
82872;BME280;72646;43.596;1.428;2023-10-09T07:28:04;100451.63;;;24.27;37.17
82872;BME280;72646;43.596;1.428;2023-10-09T07:30:43;100470.63;;;24.35;37.11
82872;BME280;72646;43.596;1.428;2023-10-09T07:33:09;100473.69;;;24.34;37.27
82872;BME280;72646;43.596;1.428;2023-10-09T07:35:41;100459.75;;;24.34;37.26
82872;BME280;72646;43.596;1.428;2023-10-09T07:40:41;100454.13;;;24.23;37.40
82872;BME280;72646;43.596;1.428;2023-10-09T07:43:31;100473.69;;;24.34;37.21
82872;BME280;72646;43.596;1.428;2023-10-09T07:46:10;100482.34;;;24.37;37.29
82872;BME280;72646;43.596;1.428;2023-10-09T07:48:55;100481.53;;;24.37;37.11
82872;BME280;72646;43.596;1.428;2023-10-09T07:51:23;100469.47;;;24.31;37.44
82872;BME280;72646;43.596;1.428;2023-10-09T07:53:52;100488.19;;;24.36;37.39
82872;BME280;72646;43.596;1.428;2023-10-09T07:56:32;100491.56;;;24.38;37.23
82872;BME280;72646;43.596;1.428;2023-10-09T07:59:05;100486.84;;;24.38;37.43
82872;BME280;72646;43.596;1.428;2023-10-09T08:01:42;100481.22;;;24.33;37.48
82872;BME280;72646;43.596;1.428;2023-10-09T08:04:21;100491.84;;;24.36;37.51
82872;BME280;72646;43.596;1.428;2023-10-09T08:07:14;100480.66;;;24.31;37.70
82872;BME280;72646;43.596;1.428;2023-10-09T08:09:53;100489.91;;;24.37;37.52
82872;BME280;72646;43.596;1.428;2023-10-09T08:12:37;100481.75;;;24.30;37.74
82872;BME280;72646;43.596;1.428;2023-10-09T08:15:16;100490.72;;;24.37;37.61
82872;BME280;72646;43.596;1.428;2023-10-09T08:20:16;100498.28;;;24.37;37.74
82872;BME280;72646;43.596;1.428;2023-10-09T08:22:43;100481.22;;;24.28;37.63
82872;BME280;72646;43.596;1.428;2023-10-09T08:25:10;100491.84;;;24.36;37.76
82872;BME280;72646;43.596;1.428;2023-10-09T08:27:55;100487.06;;;24.32;37.83
82872;BME280;72646;43.596;1.428;2023-10-09T08:30:23;100504.69;;;24.37;37.67
82872;BME280;72646;43.596;1.428;2023-10-09T08:32:52;100495.44;;;24.32;37.84
82872;BME280;72646;43.596;1.428;2023-10-09T08:35:27;100490.72;;;24.32;37.85
82872;BME280;72646;43.596;1.428;2023-10-09T08:37:58;100496.03;;;24.34;37.79
82872;BME280;72646;43.596;1.428;2023-10-09T08:40:34;100500.22;;;24.36;38.04
82872;BME280;72646;43.596;1.428;2023-10-09T08:43:16;100494.06;;;24.34;37.85
82872;BME280;72646;43.596;1.428;2023-10-09T08:45:54;100502.16;;;24.36;37.88
82872;BME280;72646;43.596;1.428;2023-10-09T08:48:26;100504.69;;;24.37;37.91
82872;BME280;72646;43.596;1.428;2023-10-09T08:50:53;100489.31;;;24.30;38.01
82872;BME280;72646;43.596;1.428;2023-10-09T08:53:21;100498.28;;;24.37;37.83
82872;BME280;72646;43.596;1.428;2023-10-09T08:55:46;100495.75;;;24.35;38.02
82872;BME280;72646;43.596;1.428;2023-10-09T08:58:14;100495.22;;;24.38;37.85
82872;BME280;72646;43.596;1.428;2023-10-09T09:00:50;100484.28;;;24.32;38.01
82872;BME280;72646;43.596;1.428;2023-10-09T09:03:18;100492.69;;;24.37;37.79
82872;BME280;72646;43.596;1.428;2023-10-09T09:05:56;100490.19;;;24.35;38.33
82872;BME280;72646;43.596;1.428;2023-10-09T09:08:25;100489.06;;;24.36;38.25
82872;BME280;72646;43.596;1.428;2023-10-09T09:11:13;100497.16;;;24.38;38.23
82872;BME280;72646;43.596;1.428;2023-10-09T09:13:48;100480.94;;;24.35;38.22
82872;BME280;72646;43.596;1.428;2023-10-09T09:16:30;100491.88;;;24.46;38.17
82872;BME280;72646;43.596;1.428;2023-10-09T09:18:58;100494.69;;;24.51;38.26
82872;BME280;72646;43.596;1.428;2023-10-09T09:21:36;100500.28;;;24.56;38.22
82872;BME280;72646;43.596;1.428;2023-10-09T09:24:11;100485.81;;;24.64;38.26
82872;BME280;72646;43.596;1.428;2023-10-09T09:27:02;100482.44;;;24.62;38.43
82872;BME280;72646;43.596;1.428;2023-10-09T09:29:44;100484.44;;;24.67;40.50
82872;BME280;72646;43.596;1.428;2023-10-09T09:32:31;100486.13;;;24.68;39.47
82872;BME280;72646;43.596;1.428;2023-10-09T09:35:17;100494.50;;;24.73;38.56
82872;BME280;72646;43.596;1.428;2023-10-09T09:37:53;100476.34;;;24.65;38.59
82872;BME280;72646;43.596;1.428;2023-10-09T09:40:20;100473.56;;;24.65;38.72
82872;BME280;72646;43.596;1.428;2023-10-09T09:43:07;100474.09;;;24.67;38.46
82872;BME280;72646;43.596;1.428;2023-10-09T09:45:46;100478.28;;;24.70;38.88
82872;BME280;72646;43.596;1.428;2023-10-09T09:48:15;100479.13;;;24.70;38.71
82872;BME280;72646;43.596;1.428;2023-10-09T09:50:42;100478.00;;;24.71;39.01
82872;BME280;72646;43.596;1.428;2023-10-09T09:53:15;100476.34;;;24.70;39.06
82872;BME280;72646;43.596;1.428;2023-10-09T09:55:53;100478.59;;;24.73;39.06
82872;BME280;72646;43.596;1.428;2023-10-09T09:58:23;100470.22;;;24.73;39.21
82872;BME280;72646;43.596;1.428;2023-10-09T10:00:52;100469.91;;;24.70;39.13
82872;BME280;72646;43.596;1.428;2023-10-09T10:03:24;100460.72;;;24.69;39.15
82872;BME280;72646;43.596;1.428;2023-10-09T10:05:52;100461.81;;;24.73;39.12
82872;BME280;72646;43.596;1.428;2023-10-09T10:08:22;100468.00;;;24.75;39.20
82872;BME280;72646;43.596;1.428;2023-10-09T10:10:56;100458.47;;;24.71;39.24
82872;BME280;72646;43.596;1.428;2023-10-09T10:13:54;100461.81;;;24.73;39.23
82872;BME280;72646;43.596;1.428;2023-10-09T10:16:24;100460.16;;;24.72;39.30
82872;BME280;72646;43.596;1.428;2023-10-09T10:21:40;100450.38;;;24.75;39.38
82872;BME280;72646;43.596;1.428;2023-10-09T10:29:44;100436.69;;;24.73;39.41
82872;BME280;72646;43.596;1.428;2023-10-09T10:32:11;100446.75;;;24.79;39.49
82872;BME280;72646;43.596;1.428;2023-10-09T10:37:20;100454.88;;;24.81;39.45
82872;BME280;72646;43.596;1.428;2023-10-09T10:39:53;100443.97;;;24.79;39.54
82872;BME280;72646;43.596;1.428;2023-10-09T10:42:24;100426.91;;;24.76;39.52
82872;BME280;72646;43.596;1.428;2023-10-09T10:45:02;100435.31;;;24.81;39.69
82872;BME280;72646;43.596;1.428;2023-10-09T10:47:48;100428.03;;;24.80;39.67
82872;BME280;72646;43.596;1.428;2023-10-09T10:50:14;100430.28;;;24.83;39.62
82872;BME280;72646;43.596;1.428;2023-10-09T10:53:16;100429.16;;;24.79;39.55
82872;BME280;72646;43.596;1.428;2023-10-09T10:56:01;100428.34;;;24.83;39.59
82872;BME280;72646;43.596;1.428;2023-10-09T10:58:39;100414.38;;;24.78;39.66
82872;BME280;72646;43.596;1.428;2023-10-09T11:01:13;100412.94;;;24.76;39.74
82872;BME280;72646;43.596;1.428;2023-10-09T11:03:41;100409.59;;;24.79;39.43
82872;BME280;72646;43.596;1.428;2023-10-09T11:06:39;100419.69;;;24.85;39.66
82872;BME280;72646;43.596;1.428;2023-10-09T11:09:08;100420.53;;;24.85;39.37
82872;BME280;72646;43.596;1.428;2023-10-09T11:12:04;100413.81;;;24.86;39.34
82872;BME280;72646;43.596;1.428;2023-10-09T11:14:47;100402.91;;;24.85;39.16
82872;BME280;72646;43.596;1.428;2023-10-09T11:17:35;100387.81;;;24.76;39.10
82872;BME280;72646;43.596;1.428;2023-10-09T11:20:03;100389.78;;;24.80;39.16
82872;BME280;72646;43.596;1.428;2023-10-09T11:22:50;100392.88;;;24.84;39.02
82872;BME280;72646;43.596;1.428;2023-10-09T11:25:40;100386.16;;;24.85;39.26
82872;BME280;72646;43.596;1.428;2023-10-09T11:28:20;100397.31;;;24.90;39.11
82872;BME280;72646;43.596;1.428;2023-10-09T11:31:11;100399.84;;;24.91;38.99
82872;BME280;72646;43.596;1.428;2023-10-09T11:33:47;100390.63;;;24.91;39.11
82872;BME280;72646;43.596;1.428;2023-10-09T11:36:22;100386.44;;;24.93;39.33
82872;BME280;72646;43.596;1.428;2023-10-09T11:38:58;100386.16;;;24.95;39.15
82872;BME280;72646;43.596;1.428;2023-10-09T11:41:44;100371.34;;;24.94;39.04
82872;BME280;72646;43.596;1.428;2023-10-09T11:44:10;100362.97;;;24.89;39.29
82872;BME280;72646;43.596;1.428;2023-10-09T11:47:00;100367.72;;;24.94;39.15
82872;BME280;72646;43.596;1.428;2023-10-09T11:52:13;100359.63;;;24.92;39.17
82872;BME280;72646;43.596;1.428;2023-10-09T11:54:39;100351.25;;;24.92;39.16
82872;BME280;72646;43.596;1.428;2023-10-09T11:57:04;100354.31;;;24.96;39.06
82872;BME280;72646;43.596;1.428;2023-10-09T11:59:31;100350.69;;;24.95;39.05
82872;BME280;72646;43.596;1.428;2023-10-09T12:02:04;100332.25;;;24.79;39.57
82872;BME280;72646;43.596;1.428;2023-10-09T12:04:29;100337.28;;;24.82;39.70
82872;BME280;72646;43.596;1.428;2023-10-09T12:06:58;100337.28;;;24.82;39.56
82872;BME280;72646;43.596;1.428;2023-10-09T12:09:34;100319.41;;;24.73;39.41
82872;BME280;72646;43.596;1.428;2023-10-09T12:12:06;100331.13;;;24.80;39.65
82872;BME280;72646;43.596;1.428;2023-10-09T12:14:32;100317.75;;;24.82;39.32
82872;BME280;72646;43.596;1.428;2023-10-09T12:17:07;100317.47;;;24.84;39.48
82872;BME280;72646;43.596;1.428;2023-10-09T12:19:37;100322.75;;;24.90;39.44
82872;BME280;72646;43.596;1.428;2023-10-09T12:22:05;100317.19;;;24.85;39.40
82872;BME280;72646;43.596;1.428;2023-10-09T12:24:32;100310.19;;;24.83;39.50
82872;BME280;72646;43.596;1.428;2023-10-09T12:26:59;100310.44;;;24.91;39.31
82872;BME280;72646;43.596;1.428;2023-10-09T12:29:24;100298.75;;;24.89;39.47
82872;BME280;72646;43.596;1.428;2023-10-09T12:31:58;100306.28;;;24.94;39.42
82872;BME280;72646;43.596;1.428;2023-10-09T12:34:24;100297.31;;;24.92;39.50
82872;BME280;72646;43.596;1.428;2023-10-09T12:36:55;100297.59;;;24.90;39.52
82872;BME280;72646;43.596;1.428;2023-10-09T12:39:21;100297.03;;;24.98;39.38
82872;BME280;72646;43.596;1.428;2023-10-09T12:41:48;100296.75;;;25.00;39.49
82872;BME280;72646;43.596;1.428;2023-10-09T12:44:14;100278.63;;;24.92;39.69
82872;BME280;72646;43.596;1.428;2023-10-09T12:46:45;100291.16;;;25.00;39.78
82872;BME280;72646;43.596;1.428;2023-10-09T12:49:20;100275.28;;;24.95;39.99
82872;BME280;72646;43.596;1.428;2023-10-09T12:51:53;100281.94;;;24.94;39.88
82872;BME280;72646;43.596;1.428;2023-10-09T12:54:18;100285.28;;;25.01;39.86
82872;BME280;72646;43.596;1.428;2023-10-09T12:56:52;100274.69;;;24.98;39.56
82872;BME280;72646;43.596;1.428;2023-10-09T12:59:18;100274.69;;;24.98;39.71
82872;BME280;72646;43.596;1.428;2023-10-09T13:01:45;100257.94;;;24.93;39.71
82872;BME280;72646;43.596;1.428;2023-10-09T13:04:14;100269.66;;;25.00;39.95
82872;BME280;72646;43.596;1.428;2023-10-09T13:06:44;100269.94;;;24.99;39.98
82872;BME280;72646;43.596;1.428;2023-10-09T13:09:16;100271.31;;;25.06;39.76
82872;BME280;72646;43.596;1.428;2023-10-09T13:11:49;100274.66;;;25.08;39.91
82872;BME280;72646;43.596;1.428;2023-10-09T13:14:16;100263.78;;;25.07;40.00
82872;BME280;72646;43.596;1.428;2023-10-09T13:16:47;100269.66;;;25.05;39.89
82872;BME280;72646;43.596;1.428;2023-10-09T13:19:15;100266.59;;;25.07;39.89
82872;BME280;72646;43.596;1.428;2023-10-09T13:21:42;100267.41;;;25.07;40.14
82872;BME280;72646;43.596;1.428;2023-10-09T13:24:08;100264.88;;;25.11;39.93
82872;BME280;72646;43.596;1.428;2023-10-09T13:26:39;100269.34;;;25.12;40.08
82872;BME280;72646;43.596;1.428;2023-10-09T13:29:06;100254.28;;;25.08;40.07
82872;BME280;72646;43.596;1.428;2023-10-09T13:31:34;100247.84;;;25.07;40.19
82872;BME280;72646;43.596;1.428;2023-10-09T13:34:06;100252.59;;;25.12;40.76
82872;BME280;72646;43.596;1.428;2023-10-09T13:36:35;100244.75;;;25.09;40.23
82872;BME280;72646;43.596;1.428;2023-10-09T13:39:04;100245.06;;;25.07;40.57
82872;BME280;72646;43.596;1.428;2023-10-09T13:41:56;100235.56;;;25.03;40.70
82872;BME280;72646;43.596;1.428;2023-10-09T13:44:30;100240.56;;;25.11;40.46
82872;BME280;72646;43.596;1.428;2023-10-09T13:46:58;100236.38;;;25.09;40.56
82872;BME280;72646;43.596;1.428;2023-10-09T13:49:24;100235.53;;;25.08;40.48
82872;BME280;72646;43.596;1.428;2023-10-09T13:51:55;100220.50;;;24.99;40.40